createdAt,value
2022-10-17T00:00:34.400Z,53.75
2022-10-17T00:01:34.409Z,53.75
2022-10-17T00:02:34.390Z,53.75
2022-10-17T00:03:34.373Z,53.75
2022-10-17T00:05:34.380Z,53.75
2022-10-17T00:06:34.366Z,53.75
2022-10-17T00:07:34.319Z,53.75
2022-10-17T00:08:34.308Z,53.75
2022-10-17T00:09:34.359Z,53.75
2022-10-17T00:10:34.289Z,53.75
2022-10-17T00:11:34.299Z,53.75
2022-10-17T00:12:34.272Z,53.75
2022-10-17T00:13:34.273Z,53.75
2022-10-17T00:15:31.082Z,53.75
2022-10-17T00:16:31.035Z,53.75
2022-10-17T00:17:31.233Z,53.75
2022-10-17T00:18:31.012Z,53.75
2022-10-17T00:19:31.012Z,53.75
2022-10-17T00:20:31.001Z,53.75
2022-10-17T00:21:30.981Z,53.75
2022-10-17T00:22:31.006Z,53.75
2022-10-17T00:23:30.982Z,53.75
2022-10-17T00:24:30.981Z,53.75
2022-10-17T00:25:30.944Z,53.75
2022-10-17T00:26:30.943Z,53.75
2022-10-17T00:27:30.992Z,53.75
2022-10-17T00:28:31.003Z,53.75
2022-10-17T00:29:30.913Z,53.75
2022-10-17T00:30:30.904Z,53.75
2022-10-17T00:31:30.894Z,53.75
2022-10-17T00:32:31.068Z,53.75
2022-10-17T00:33:30.914Z,53.75
2022-10-17T00:34:30.852Z,53.75
2022-10-17T00:35:30.853Z,53.75
2022-10-17T00:36:30.832Z,53.75
2022-10-17T00:37:30.841Z,53.75
2022-10-17T00:38:30.842Z,53.64
2022-10-17T00:39:30.811Z,53.75
2022-10-17T00:40:30.792Z,53.75
2022-10-17T00:41:30.802Z,53.75
2022-10-17T00:42:31.047Z,53.75
2022-10-17T00:43:30.775Z,53.75
2022-10-17T00:44:30.826Z,53.75
2022-10-17T00:45:30.757Z,53.75
2022-10-17T00:46:30.736Z,53.64
2022-10-17T00:47:30.795Z,53.75
2022-10-17T00:48:30.774Z,53.75
2022-10-17T00:49:30.714Z,53.75
2022-10-17T00:50:30.690Z,53.64
2022-10-17T00:51:30.694Z,53.75
2022-10-17T00:52:31.035Z,53.75
2022-10-17T00:53:30.662Z,53.75
2022-10-17T00:54:30.708Z,53.75
2022-10-17T00:55:30.666Z,53.75
2022-10-17T00:56:30.654Z,53.64
2022-10-17T00:57:30.625Z,53.75
2022-10-17T00:58:31.563Z,53.64
2022-10-17T00:59:30.604Z,53.75
2022-10-17T01:00:30.607Z,53.75
2022-10-17T01:01:30.681Z,53.64
2022-10-17T01:02:30.847Z,53.75
2022-10-17T01:03:30.563Z,53.64
2022-10-17T01:04:30.546Z,53.64
2022-10-17T01:05:30.572Z,53.64
2022-10-17T01:06:30.542Z,53.64
2022-10-17T01:07:33.305Z,53.64
2022-10-17T01:08:31.515Z,53.64
2022-10-17T01:09:30.565Z,53.64
2022-10-17T01:10:30.498Z,53.64
2022-10-17T01:11:30.490Z,53.64
2022-10-17T01:12:30.813Z,53.64
2022-10-17T01:13:30.485Z,53.64
2022-10-17T01:14:30.472Z,53.64
2022-10-17T01:15:30.454Z,53.64
2022-10-17T01:16:30.423Z,53.64
2022-10-17T01:17:30.423Z,53.64
2022-10-17T01:18:30.407Z,53.64
2022-10-17T01:19:30.434Z,53.64
2022-10-17T01:20:30.404Z,53.64
2022-10-17T01:21:30.374Z,53.64
2022-10-17T01:22:30.615Z,53.64
2022-10-17T01:23:30.374Z,53.64
2022-10-17T01:24:30.366Z,53.75
2022-10-17T01:25:30.358Z,53.75
2022-10-17T01:26:30.356Z,53.64
2022-10-17T01:27:30.357Z,53.75
2022-10-17T01:28:30.423Z,53.75
2022-10-17T01:29:30.305Z,53.75
2022-10-17T01:30:30.282Z,53.64
2022-10-17T01:31:30.274Z,53.64
2022-10-17T01:32:30.482Z,53.75
2022-10-17T01:33:30.253Z,53.75
2022-10-17T01:34:30.243Z,53.64
2022-10-17T01:35:30.285Z,53.64
2022-10-17T01:36:30.224Z,53.64
2022-10-17T01:37:30.231Z,53.64
2022-10-17T01:38:30.225Z,53.64
2022-10-17T01:39:30.494Z,53.64
2022-10-17T01:40:30.196Z,53.64
2022-10-17T01:41:30.227Z,53.64
2022-10-17T01:42:30.625Z,53.75
2022-10-17T01:43:30.166Z,53.64
2022-10-17T01:44:30.158Z,53.64
2022-10-17T01:45:30.136Z,53.64
2022-10-17T01:46:30.135Z,53.64
2022-10-17T01:47:30.524Z,53.64
2022-10-17T01:48:30.104Z,53.64
2022-10-17T01:49:30.094Z,53.64
2022-10-17T01:50:30.085Z,53.64
2022-10-17T01:51:30.076Z,53.64
2022-10-17T01:52:30.092Z,53.64
2022-10-17T01:53:30.079Z,53.64
2022-10-17T01:54:30.046Z,53.64
2022-10-17T01:55:30.056Z,53.64
2022-10-17T01:56:30.046Z,53.64
2022-10-17T01:57:30.305Z,53.64
2022-10-17T01:58:30.009Z,53.64
2022-10-17T01:59:30.028Z,53.64
2022-10-17T02:00:29.984Z,53.64
2022-10-17T02:01:30.031Z,53.64
2022-10-17T02:02:29.975Z,53.64
2022-10-17T02:03:29.968Z,53.64
2022-10-17T02:04:29.946Z,53.64
2022-10-17T02:05:29.974Z,53.64
2022-10-17T02:06:29.926Z,53.64
2022-10-17T02:07:30.242Z,53.64
2022-10-17T02:08:29.907Z,53.64
2022-10-17T02:09:29.897Z,53.64
2022-10-17T02:10:29.895Z,53.64
2022-10-17T02:11:29.896Z,53.64
2022-10-17T02:12:29.854Z,53.64
2022-10-17T02:13:29.844Z,53.64
2022-10-17T02:14:29.845Z,53.64
2022-10-17T02:15:29.835Z,53.64
2022-10-17T02:16:29.817Z,53.64
2022-10-17T02:17:30.144Z,53.64
2022-10-17T02:18:29.806Z,53.64
2022-10-17T02:19:29.838Z,53.75
2022-10-17T02:20:29.787Z,53.64
2022-10-17T02:21:29.777Z,53.64
2022-10-17T02:22:29.777Z,53.64
2022-10-17T02:23:29.774Z,53.64
2022-10-17T02:24:29.766Z,53.64
2022-10-17T02:25:29.737Z,53.64
2022-10-17T02:26:29.746Z,53.75
2022-10-17T02:27:30.149Z,53.64
2022-10-17T02:28:29.761Z,53.64
2022-10-17T02:29:29.695Z,53.64
2022-10-17T02:30:29.675Z,53.64
2022-10-17T02:31:29.734Z,53.64
2022-10-17T02:32:29.659Z,53.64
2022-10-17T02:33:29.646Z,53.64
2022-10-17T02:34:29.657Z,53.64
2022-10-17T02:35:29.643Z,53.64
2022-10-17T02:36:29.626Z,53.67
2022-10-17T02:37:30.069Z,53.64
2022-10-17T02:38:29.607Z,53.64
2022-10-17T02:39:29.605Z,53.64
2022-10-17T02:40:29.597Z,53.64
2022-10-17T02:42:29.797Z,53.64
2022-10-17T02:43:29.547Z,53.64
2022-10-17T02:44:29.526Z,53.64
2022-10-17T02:45:29.545Z,53.64
2022-10-17T02:46:29.525Z,53.67
2022-10-17T02:47:29.550Z,53.67
2022-10-17T02:48:29.502Z,53.67
2022-10-17T02:49:29.491Z,53.64
2022-10-17T02:51:29.478Z,53.67
2022-10-17T02:52:29.642Z,53.64
2022-10-17T02:53:29.448Z,53.64
2022-10-17T02:54:29.438Z,53.64
2022-10-17T02:55:29.456Z,53.64
2022-10-17T02:56:29.447Z,53.67
2022-10-17T02:57:29.408Z,53.67
2022-10-17T02:58:29.417Z,53.64
2022-10-17T02:59:29.421Z,53.67
2022-10-17T03:00:29.387Z,53.67
2022-10-17T03:01:29.413Z,53.64
2022-10-17T03:02:29.553Z,53.67
2022-10-17T03:03:29.346Z,53.64
2022-10-17T03:04:29.386Z,53.64
2022-10-17T03:05:29.328Z,53.64
2022-10-17T03:06:29.379Z,53.67
2022-10-17T03:07:29.309Z,53.67
2022-10-17T03:08:29.363Z,53.67
2022-10-17T03:09:29.299Z,53.67
2022-10-17T03:10:29.299Z,53.64
2022-10-17T03:11:29.268Z,53.64
2022-10-17T03:12:29.480Z,53.67
2022-10-17T03:13:29.272Z,53.67
2022-10-17T03:14:29.246Z,53.64
2022-10-17T03:15:29.236Z,53.67
2022-10-17T03:16:29.257Z,53.64
2022-10-17T03:17:29.197Z,53.67
2022-10-17T03:18:29.217Z,53.67
2022-10-17T03:19:29.187Z,53.67
2022-10-17T03:20:29.176Z,53.67
2022-10-17T03:21:29.196Z,53.67
2022-10-17T03:22:29.418Z,53.67
2022-10-17T03:23:29.139Z,53.67
2022-10-17T03:24:29.149Z,53.67
2022-10-17T03:25:29.129Z,53.67
2022-10-17T03:26:29.119Z,53.67
2022-10-17T03:27:29.381Z,53.67
2022-10-17T03:28:29.134Z,53.67
2022-10-17T03:29:29.109Z,53.67
2022-10-17T03:30:29.068Z,53.67
2022-10-17T03:31:29.073Z,53.67
2022-10-17T03:32:29.047Z,53.67
2022-10-17T03:33:29.037Z,53.67
2022-10-17T03:34:29.027Z,53.67
2022-10-17T03:35:29.037Z,53.67
2022-10-17T03:36:29.009Z,53.67
2022-10-17T03:37:29.306Z,53.67
2022-10-17T03:38:29.008Z,53.67
2022-10-17T03:39:28.999Z,53.67
2022-10-17T03:40:28.971Z,53.67
2022-10-17T03:41:28.968Z,53.64
2022-10-17T03:42:28.960Z,53.67
2022-10-17T03:43:28.950Z,53.64
2022-10-17T03:44:28.940Z,53.67
2022-10-17T03:45:28.921Z,53.64
2022-10-17T03:46:28.908Z,53.55
2022-10-17T03:47:29.231Z,53.57
2022-10-17T03:48:28.908Z,53.55
2022-10-17T03:49:28.878Z,53.55
2022-10-17T03:50:28.857Z,53.55
2022-10-17T03:51:28.868Z,53.55
2022-10-17T03:52:28.857Z,53.55
2022-10-17T03:53:28.837Z,53.55
2022-10-17T03:54:28.850Z,53.55
2022-10-17T03:55:28.837Z,53.55
2022-10-17T03:56:28.810Z,53.55
2022-10-17T03:57:29.112Z,53.55
2022-10-17T03:58:28.797Z,53.55
2022-10-17T03:59:28.770Z,53.55
2022-10-17T04:00:28.826Z,53.55
2022-10-17T04:01:28.801Z,53.55
2022-10-17T04:02:28.738Z,53.55
2022-10-17T04:03:28.729Z,53.45
2022-10-17T04:04:28.728Z,53.55
2022-10-17T04:05:28.718Z,53.45
2022-10-17T04:06:28.739Z,53.45
2022-10-17T04:07:28.728Z,53.45
2022-10-17T04:08:28.682Z,53.45
2022-10-17T04:09:28.701Z,53.45
2022-10-17T04:10:28.659Z,53.45
2022-10-17T04:11:28.657Z,53.45
2022-10-17T04:12:28.992Z,53.45
2022-10-17T04:13:28.650Z,53.45
2022-10-17T04:14:28.628Z,53.45
2022-10-17T04:15:28.630Z,53.45
2022-10-17T04:16:28.628Z,53.45
2022-10-17T04:17:28.589Z,53.45
2022-10-17T04:18:28.611Z,53.45
2022-10-17T04:19:28.571Z,53.45
2022-10-17T04:20:28.571Z,53.45
2022-10-17T04:21:28.562Z,53.45
2022-10-17T04:22:28.770Z,53.45
2022-10-17T04:23:28.553Z,53.45
2022-10-17T04:24:28.560Z,53.34
2022-10-17T04:25:30.372Z,53.45
2022-10-17T04:26:28.510Z,53.45
2022-10-17T04:27:28.489Z,53.45
2022-10-17T04:28:28.672Z,53.45
2022-10-17T04:29:28.490Z,53.45
2022-10-17T04:30:28.460Z,53.34
2022-10-17T04:31:28.450Z,53.34
2022-10-17T04:32:28.793Z,53.34
2022-10-17T04:33:28.419Z,53.34
2022-10-17T04:34:28.431Z,53.34
2022-10-17T04:35:28.431Z,53.34
2022-10-17T04:36:28.430Z,53.34
2022-10-17T04:37:28.433Z,53.34
2022-10-17T04:38:28.709Z,53.34
2022-10-17T04:39:28.371Z,53.34
2022-10-17T04:40:28.391Z,53.34
2022-10-17T04:41:28.371Z,53.34
2022-10-17T04:42:28.800Z,53.34
2022-10-17T04:43:28.338Z,53.34
2022-10-17T04:44:28.338Z,53.34
2022-10-17T04:45:28.299Z,53.34
2022-10-17T04:46:28.289Z,53.34
2022-10-17T04:47:28.289Z,53.34
2022-10-17T04:48:28.280Z,53.34
2022-10-17T04:49:28.306Z,53.34
2022-10-17T04:50:28.271Z,53.34
2022-10-17T04:51:28.262Z,53.34
2022-10-17T04:52:28.563Z,53.34
2022-10-17T04:53:28.233Z,53.34
2022-10-17T04:54:28.241Z,53.34
2022-10-17T04:55:28.232Z,53.34
2022-10-17T04:56:28.199Z,53.34
2022-10-17T04:57:28.193Z,53.34
2022-10-17T04:58:28.178Z,53.34
2022-10-17T04:59:28.179Z,53.34
2022-10-17T05:00:28.178Z,53.34
2022-10-17T05:01:28.159Z,53.34
2022-10-17T05:02:28.493Z,53.34
2022-10-17T05:03:28.122Z,53.34
2022-10-17T05:04:28.141Z,53.34
2022-10-17T05:05:28.100Z,53.34
2022-10-17T05:06:28.112Z,53.25
2022-10-17T05:07:28.092Z,53.25
2022-10-17T05:08:28.073Z,53.25
2022-10-17T05:09:28.089Z,53.22
2022-10-17T05:10:28.080Z,53.25
2022-10-17T05:11:28.060Z,53.22
2022-10-17T05:12:28.300Z,53.22
2022-10-17T05:13:28.020Z,53.22
2022-10-17T05:14:28.032Z,53.22
2022-10-17T05:16:24.858Z,53.22
2022-10-17T05:17:24.889Z,53.22
2022-10-17T05:18:24.838Z,53.22
2022-10-17T05:19:24.830Z,53.22
2022-10-17T05:20:24.812Z,53.22
2022-10-17T05:21:24.850Z,53.22
2022-10-17T05:22:24.796Z,53.22
2022-10-17T05:23:24.817Z,53.22
2022-10-17T05:24:25.464Z,53.22
2022-10-17T05:25:24.776Z,53.22
2022-10-17T05:26:24.746Z,53.22
2022-10-17T05:27:24.746Z,53.22
2022-10-17T05:28:24.767Z,53.12
2022-10-17T05:29:24.736Z,53.22
2022-10-17T05:30:24.718Z,53.22
2022-10-17T05:31:24.717Z,53.22
2022-10-17T05:32:24.709Z,53.12
2022-10-17T05:33:24.699Z,53.22
2022-10-17T05:34:24.658Z,53.42
2022-10-17T05:35:24.959Z,53.82
2022-10-17T05:36:24.598Z,54.22
2022-10-17T05:37:24.679Z,54.43
2022-10-17T05:38:24.624Z,54.43
2022-10-17T05:39:24.623Z,54.52
2022-10-17T05:40:24.606Z,54.52
2022-10-17T05:41:24.647Z,54.43
2022-10-17T05:42:24.658Z,54.43
2022-10-17T05:43:24.577Z,54.43
2022-10-17T05:44:24.566Z,54.32
2022-10-17T05:45:24.572Z,54.22
2022-10-17T05:46:24.567Z,54.22
2022-10-17T05:47:24.539Z,54.22
2022-10-17T05:48:24.548Z,54.12
2022-10-17T05:49:33.841Z,54.02
2022-10-17T05:50:25.533Z,54.02
2022-10-17T05:51:24.509Z,54.02
2022-10-17T05:52:24.496Z,54.02
2022-10-17T05:53:24.477Z,54.02
2022-10-17T05:54:25.127Z,53.92
2022-10-17T05:55:24.479Z,53.92
2022-10-17T05:56:24.448Z,53.92
2022-10-17T05:57:24.412Z,53.92
2022-10-17T05:58:45.565Z,53.92
2022-10-17T05:59:25.387Z,53.92
2022-10-17T06:00:24.347Z,54.02
2022-10-17T06:01:24.421Z,53.92
2022-10-17T06:02:24.374Z,53.92
2022-10-17T06:03:24.348Z,54.02
2022-10-17T06:04:24.325Z,53.92
2022-10-17T06:05:24.319Z,54.02
2022-10-17T06:06:24.288Z,54.02
2022-10-17T06:07:24.276Z,54.02
2022-10-17T06:08:24.269Z,54.02
2022-10-17T06:09:24.267Z,54.02
2022-10-17T06:10:24.314Z,54.02
2022-10-17T06:11:24.259Z,53.92
2022-10-17T06:12:24.239Z,54.02
2022-10-17T06:13:24.229Z,54.02
2022-10-17T06:14:24.209Z,53.92
2022-10-17T06:15:24.250Z,53.92
2022-10-17T06:16:24.218Z,53.92
2022-10-17T06:17:24.187Z,53.82
2022-10-17T06:18:24.168Z,53.82
2022-10-17T06:19:24.179Z,53.92
2022-10-17T06:20:24.167Z,53.92
2022-10-17T06:21:24.138Z,53.92
2022-10-17T06:22:24.155Z,53.92
2022-10-17T06:23:24.117Z,53.92
2022-10-17T06:24:24.098Z,53.92
2022-10-17T06:25:24.101Z,53.82
2022-10-17T06:26:24.120Z,53.82
2022-10-17T06:27:24.079Z,53.82
2022-10-17T06:28:24.134Z,53.82
2022-10-17T06:29:24.060Z,53.72
2022-10-17T06:30:24.091Z,53.72
2022-10-17T06:31:24.040Z,53.82
2022-10-17T06:32:24.049Z,53.72
2022-10-17T06:33:24.007Z,53.62
2022-10-17T06:34:24.008Z,53.72
2022-10-17T06:35:24.008Z,53.72
2022-10-17T06:36:24.009Z,53.69
2022-10-17T06:37:23.966Z,53.69
2022-10-17T06:38:23.962Z,53.69
2022-10-17T06:39:23.958Z,53.69
2022-10-17T06:40:23.948Z,53.80
2022-10-17T06:41:23.951Z,53.80
2022-10-17T06:42:23.929Z,53.69
2022-10-17T06:43:27.819Z,53.59
2022-10-17T06:44:23.911Z,53.59
2022-10-17T06:45:23.899Z,53.50
2022-10-17T06:46:23.900Z,53.50
2022-10-17T06:47:23.871Z,53.39
2022-10-17T06:48:23.870Z,53.39
2022-10-17T06:49:23.859Z,53.50
2022-10-17T06:50:23.859Z,53.39
2022-10-17T06:51:23.829Z,53.39
2022-10-17T06:52:23.821Z,53.39
2022-10-17T06:53:23.809Z,53.39
2022-10-17T06:54:23.797Z,53.39
2022-10-17T06:55:23.808Z,53.39
2022-10-17T06:56:23.801Z,53.30
2022-10-17T06:57:23.781Z,53.27
2022-10-17T06:58:23.762Z,53.27
2022-10-17T06:59:23.768Z,53.27
2022-10-17T07:00:23.752Z,53.27
2022-10-17T07:01:23.749Z,53.17
2022-10-17T07:02:23.719Z,53.17
2022-10-17T07:03:23.709Z,53.07
2022-10-17T07:04:23.692Z,53.07
2022-10-17T07:05:23.691Z,53.07
2022-10-17T07:06:23.722Z,53.07
2022-10-17T07:07:23.680Z,53.07
2022-10-17T07:08:23.669Z,53.07
2022-10-17T07:09:23.652Z,53.07
2022-10-17T07:10:23.642Z,53.07
2022-10-17T07:11:23.659Z,52.97
2022-10-17T07:12:23.621Z,53.07
2022-10-17T07:13:23.611Z,52.97
2022-10-17T07:14:23.598Z,52.97
2022-10-17T07:15:23.589Z,52.97
2022-10-17T07:16:23.569Z,52.97
2022-10-17T07:17:23.609Z,52.97
2022-10-17T07:18:23.579Z,53.05
2022-10-17T07:19:23.540Z,53.05
2022-10-17T07:20:23.530Z,53.05
2022-10-17T07:21:23.549Z,53.05
2022-10-17T07:22:23.514Z,52.94
2022-10-17T07:23:23.524Z,53.14
2022-10-17T07:24:23.501Z,53.24
2022-10-17T07:25:23.494Z,53.24
2022-10-17T07:26:23.481Z,53.24
2022-10-17T07:27:23.492Z,53.24
2022-10-17T07:28:23.542Z,53.14
2022-10-17T07:29:23.471Z,53.05
2022-10-17T07:30:24.380Z,52.94
2022-10-17T07:31:23.441Z,52.94
2022-10-17T07:32:23.411Z,52.84
2022-10-17T07:33:23.400Z,52.84
2022-10-17T07:34:23.450Z,52.94
2022-10-17T07:35:23.380Z,53.55
2022-10-17T07:36:23.370Z,54.05
2022-10-17T07:37:24.330Z,54.44
2022-10-17T07:38:23.351Z,54.64
2022-10-17T07:39:23.362Z,54.85
2022-10-17T07:40:23.362Z,54.94
2022-10-17T07:41:23.340Z,55.05
2022-10-17T07:42:23.312Z,55.35
2022-10-17T07:43:23.312Z,55.55
2022-10-17T07:44:23.323Z,55.74
2022-10-17T07:45:23.293Z,55.98
2022-10-17T07:46:23.269Z,56.17
2022-10-17T07:47:23.260Z,56.27
2022-10-17T07:48:23.251Z,56.48
2022-10-17T07:49:23.260Z,56.57
2022-10-17T07:50:23.250Z,56.67
2022-10-17T07:51:23.220Z,56.67
2022-10-17T07:52:23.202Z,56.87
2022-10-17T07:53:23.231Z,56.87
2022-10-17T07:54:23.201Z,56.87
2022-10-17T07:55:23.214Z,56.87
2022-10-17T07:56:23.213Z,57.28
2022-10-17T07:57:23.186Z,57.48
2022-10-17T07:58:23.143Z,57.28
2022-10-17T07:59:23.156Z,57.17
2022-10-17T08:00:23.182Z,57.07
2022-10-17T08:01:23.122Z,56.98
2022-10-17T08:02:23.136Z,56.87
2022-10-17T08:03:23.101Z,56.87
2022-10-17T08:04:23.081Z,57.07
2022-10-17T08:05:23.081Z,57.07
2022-10-17T08:06:23.075Z,57.07
2022-10-17T08:07:28.359Z,57.07
2022-10-17T08:08:24.051Z,57.05
2022-10-17T08:09:23.044Z,57.15
2022-10-17T08:10:23.024Z,57.15
2022-10-17T08:11:23.022Z,57.15
2022-10-17T08:12:23.184Z,57.24
2022-10-17T08:13:22.994Z,57.15
2022-10-17T08:14:22.982Z,57.15
2022-10-17T08:15:24.171Z,57.05
2022-10-17T08:16:22.961Z,56.95
2022-10-17T08:17:22.984Z,56.92
2022-10-17T08:18:22.962Z,56.72
2022-10-17T08:19:22.944Z,56.72
2022-10-17T08:20:22.942Z,56.62
2022-10-17T08:21:22.944Z,56.62
2022-10-17T08:22:22.903Z,56.62
2022-10-17T08:23:22.934Z,56.52
2022-10-17T08:24:22.894Z,56.42
2022-10-17T08:25:22.913Z,56.32
2022-10-17T08:26:22.870Z,56.22
2022-10-17T08:27:22.872Z,56.20
2022-10-17T08:28:22.915Z,56.20
2022-10-17T08:29:22.849Z,56.20
2022-10-17T08:30:22.824Z,56.09
2022-10-17T08:31:22.812Z,56.09
2022-10-17T08:32:22.812Z,56.09
2022-10-17T08:33:22.792Z,56.09
2022-10-17T08:34:22.784Z,55.99
2022-10-17T08:35:22.794Z,55.89
2022-10-17T08:36:22.772Z,55.89
2022-10-17T08:37:22.817Z,55.99
2022-10-17T08:38:26.194Z,55.89
2022-10-17T08:39:22.746Z,55.79
2022-10-17T08:40:22.725Z,55.79
2022-10-17T08:41:23.362Z,55.77
2022-10-17T08:42:22.742Z,55.66
2022-10-17T08:43:22.695Z,55.66
2022-10-17T08:44:22.682Z,55.57
2022-10-17T08:45:22.673Z,55.57
2022-10-17T08:46:22.665Z,55.57
2022-10-17T08:47:22.656Z,55.66
2022-10-17T08:48:22.680Z,55.47
2022-10-17T08:49:22.634Z,55.47
2022-10-17T08:50:22.625Z,55.47
2022-10-17T08:51:22.614Z,55.36
2022-10-17T08:52:22.604Z,55.47
2022-10-17T08:53:22.614Z,55.47
2022-10-17T08:54:22.595Z,55.47
2022-10-17T08:55:22.578Z,55.47
2022-10-17T08:56:25.168Z,55.47
2022-10-17T08:57:23.553Z,55.47
2022-10-17T08:58:22.544Z,55.36
2022-10-17T08:59:22.544Z,55.34
2022-10-17T09:00:22.524Z,55.24
2022-10-17T09:01:22.509Z,55.24
2022-10-17T09:02:22.504Z,55.24
2022-10-17T09:03:22.533Z,55.24
2022-10-17T09:04:22.556Z,55.14
2022-10-17T09:05:25.564Z,55.14
2022-10-17T09:06:22.483Z,55.14
2022-10-17T09:07:22.474Z,55.14
2022-10-17T09:08:22.477Z,55.14
2022-10-17T09:09:22.429Z,55.14
2022-10-17T09:10:22.454Z,55.04
2022-10-17T09:11:22.437Z,55.04
2022-10-17T09:12:22.438Z,55.04
2022-10-17T09:13:22.395Z,55.04
2022-10-17T09:14:22.394Z,55.04
2022-10-17T09:15:22.367Z,55.04
2022-10-17T09:16:22.374Z,55.04
2022-10-17T09:17:22.475Z,55.04
2022-10-17T09:18:22.345Z,54.94
2022-10-17T09:19:22.325Z,55.04
2022-10-17T09:20:22.347Z,54.84
2022-10-17T09:21:22.315Z,54.84
2022-10-17T09:22:22.308Z,55.44
2022-10-17T09:23:22.297Z,55.64
2022-10-17T09:24:22.296Z,55.94
2022-10-17T09:25:22.276Z,56.54
2022-10-17T09:26:22.286Z,56.84
2022-10-17T09:27:22.274Z,57.07
2022-10-17T09:28:22.327Z,57.46
2022-10-17T09:29:22.247Z,57.67
2022-10-17T09:30:40.481Z,58.09
2022-10-17T09:31:23.227Z,58.39
2022-10-17T09:32:22.205Z,58.72
2022-10-17T09:33:34.630Z,58.92
2022-10-17T09:34:26.720Z,59.02
2022-10-17T09:35:22.175Z,59.22
2022-10-17T09:36:22.166Z,59.42
2022-10-17T09:37:22.197Z,59.72
2022-10-17T09:38:22.158Z,59.92
2022-10-17T09:39:22.137Z,59.92
2022-10-17T09:40:22.140Z,59.92
2022-10-17T09:42:23.118Z,60.12
2022-10-17T09:43:22.108Z,60.12
2022-10-17T09:44:22.141Z,60.02
2022-10-17T09:45:22.077Z,60.12
2022-10-17T09:46:22.057Z,60.22
2022-10-17T09:47:22.054Z,60.22
2022-10-17T09:48:22.079Z,60.12
2022-10-17T09:49:22.042Z,59.92
2022-10-17T09:50:22.016Z,59.92
2022-10-17T09:51:25.967Z,60.12
2022-10-17T09:52:21.998Z,60.22
2022-10-17T09:53:22.028Z,60.22
2022-10-17T09:54:21.991Z,60.42
2022-10-17T09:55:21.979Z,60.52
2022-10-17T09:56:21.968Z,60.72
2022-10-17T09:57:21.951Z,60.72
2022-10-17T09:58:21.967Z,60.82
2022-10-17T09:59:21.978Z,60.92
2022-10-17T10:00:21.939Z,60.92
2022-10-17T10:01:24.070Z,61.02
2022-10-17T10:02:21.897Z,60.99
2022-10-17T10:03:21.889Z,60.89
2022-10-17T10:04:21.881Z,61.12
2022-10-17T10:05:21.903Z,60.99
2022-10-17T10:06:21.907Z,61.09
2022-10-17T10:07:25.624Z,61.19
2022-10-17T10:08:22.848Z,61.29
2022-10-17T10:10:21.820Z,61.29
2022-10-17T10:11:21.829Z,61.49
2022-10-17T10:12:21.829Z,61.59
2022-10-17T10:13:21.777Z,61.79
2022-10-17T10:14:21.777Z,61.69
2022-10-17T10:15:21.777Z,61.79
2022-10-17T10:17:18.506Z,61.99
2022-10-17T10:18:18.522Z,61.99
2022-10-17T10:19:18.496Z,62.09
2022-10-17T10:20:18.475Z,62.19
2022-10-17T10:21:18.463Z,62.49
2022-10-17T10:22:18.488Z,62.39
2022-10-17T10:23:18.476Z,62.59
2022-10-17T10:24:18.446Z,62.39
2022-10-17T10:25:18.417Z,62.49
2022-10-17T10:26:20.946Z,62.39
2022-10-17T10:27:18.468Z,62.39
2022-10-17T10:28:18.419Z,62.39
2022-10-17T10:29:18.380Z,62.39
2022-10-17T10:30:18.366Z,62.49
2022-10-17T10:31:18.346Z,62.59
2022-10-17T10:32:18.346Z,62.59
2022-10-17T10:33:18.386Z,62.39
2022-10-17T10:34:18.359Z,62.59
2022-10-17T10:35:18.318Z,62.49
2022-10-17T10:36:18.359Z,62.59
2022-10-17T10:37:18.299Z,62.70
2022-10-17T10:38:18.289Z,62.70
2022-10-17T10:39:18.297Z,62.49
2022-10-17T10:40:18.268Z,62.39
2022-10-17T10:41:18.507Z,62.49
2022-10-17T10:42:18.253Z,62.59
2022-10-17T10:43:19.197Z,63.09
2022-10-17T10:44:18.248Z,62.96
2022-10-17T10:45:35.937Z,62.66
2022-10-17T10:46:19.218Z,62.56
2022-10-17T10:47:18.219Z,62.56
2022-10-17T10:48:18.188Z,62.76
2022-10-17T10:49:18.198Z,62.76
2022-10-17T10:50:18.177Z,62.56
2022-10-17T10:51:18.171Z,62.26
2022-10-17T10:52:18.151Z,62.37
2022-10-17T10:53:18.181Z,61.87
2022-10-17T10:54:18.117Z,62.06
2022-10-17T10:55:18.128Z,62.06
2022-10-17T10:56:18.130Z,61.87
2022-10-17T10:57:18.087Z,61.76
2022-10-17T10:58:18.077Z,62.16
2022-10-17T10:59:18.097Z,62.06
2022-10-17T11:00:18.078Z,62.37
2022-10-17T11:01:18.130Z,62.56
2022-10-17T11:02:18.067Z,61.96
2022-10-17T11:03:18.031Z,61.26
2022-10-17T11:04:18.029Z,60.86
2022-10-17T11:05:18.030Z,60.96
2022-10-17T11:06:18.010Z,61.36
2022-10-17T11:07:18.014Z,62.37
2022-10-17T11:08:17.994Z,62.26
2022-10-17T11:09:17.989Z,62.26
2022-10-17T11:10:17.958Z,62.37
2022-10-17T11:11:17.971Z,62.06
2022-10-17T11:12:17.938Z,62.59
2022-10-17T11:13:17.918Z,62.59
2022-10-17T11:14:17.908Z,62.39
2022-10-17T11:15:17.918Z,62.29
2022-10-17T11:16:17.909Z,62.26
2022-10-17T11:17:17.917Z,62.06
2022-10-17T11:18:17.890Z,61.57
2022-10-17T11:19:17.899Z,61.16
2022-10-17T11:20:17.921Z,61.07
2022-10-17T11:21:18.006Z,58.97
2022-10-17T11:22:17.842Z,58.17
2022-10-17T11:23:17.832Z,59.47
2022-10-17T11:24:17.839Z,58.26
2022-10-17T11:25:17.822Z,57.76
2022-10-17T11:26:17.789Z,58.37
2022-10-17T11:27:17.808Z,58.47
2022-10-17T11:28:17.779Z,58.76
2022-10-17T11:29:17.778Z,59.36
2022-10-17T11:30:17.798Z,59.77
2022-10-17T11:31:17.740Z,59.17
2022-10-17T11:32:17.758Z,59.06
2022-10-17T11:33:17.719Z,59.23
2022-10-17T11:34:17.750Z,59.17
2022-10-17T11:35:17.711Z,59.04
2022-10-17T11:36:17.761Z,58.73
2022-10-17T11:37:17.682Z,58.73
2022-10-17T11:38:17.674Z,58.84
2022-10-17T11:39:17.677Z,58.84
2022-10-17T11:40:20.438Z,58.73
2022-10-17T11:41:18.652Z,58.73
2022-10-17T11:42:17.661Z,58.64
2022-10-17T11:43:17.631Z,58.73
2022-10-17T11:44:17.622Z,58.94
2022-10-17T11:45:17.611Z,59.64
2022-10-17T11:46:17.611Z,59.64
2022-10-17T11:47:17.613Z,59.64
2022-10-17T11:48:17.574Z,59.44
2022-10-17T11:49:20.399Z,59.44
2022-10-17T11:52:37.396Z,58.94
2022-10-17T11:53:18.529Z,59.04
2022-10-17T11:54:17.535Z,59.04
2022-10-17T11:55:18.413Z,59.14
2022-10-17T11:56:17.521Z,59.44
2022-10-17T11:57:17.517Z,59.04
2022-10-17T11:58:17.585Z,59.23
2022-10-17T11:59:17.463Z,59.23
2022-10-17T12:00:17.461Z,59.23
2022-10-17T12:01:17.443Z,59.64
2022-10-17T12:02:17.442Z,60.14
2022-10-17T12:03:17.432Z,60.44
2022-10-17T12:04:17.422Z,60.83
2022-10-17T12:05:17.414Z,60.93
2022-10-17T12:06:17.401Z,60.63
2022-10-17T12:07:17.371Z,60.44
2022-10-17T12:08:17.382Z,60.74
2022-10-17T12:09:17.364Z,61.04
2022-10-17T12:10:17.350Z,61.13
2022-10-17T12:11:17.321Z,61.24
2022-10-17T12:12:17.331Z,61.13
2022-10-17T12:13:17.313Z,61.43
2022-10-17T12:14:17.322Z,61.13
2022-10-17T12:15:17.295Z,61.33
2022-10-17T12:16:17.696Z,61.43
2022-10-17T12:17:17.274Z,61.63
2022-10-17T12:18:17.272Z,61.43
2022-10-17T12:19:17.272Z,61.46
2022-10-17T12:20:17.263Z,61.46
2022-10-17T12:21:17.252Z,61.46
2022-10-17T12:22:17.220Z,61.46
2022-10-17T12:23:17.210Z,61.66
2022-10-17T12:24:18.946Z,61.76
2022-10-17T12:25:17.212Z,61.76
2022-10-17T12:26:17.181Z,61.46
2022-10-17T12:27:17.234Z,61.66
2022-10-17T12:28:17.161Z,61.36
2022-10-17T12:29:17.143Z,61.76
2022-10-17T12:30:17.161Z,61.66
2022-10-17T12:31:17.154Z,61.76
2022-10-17T12:32:17.124Z,61.57
2022-10-17T12:33:17.113Z,61.36
2022-10-17T12:34:17.135Z,61.26
2022-10-17T12:35:17.104Z,61.26
2022-10-17T12:36:17.085Z,61.46
2022-10-17T12:37:17.110Z,61.26
2022-10-17T12:38:17.165Z,61.46
2022-10-17T12:39:17.083Z,61.46
2022-10-17T12:40:17.087Z,61.46
2022-10-17T12:41:17.021Z,61.16
2022-10-17T12:42:17.034Z,61.07
2022-10-17T12:43:17.015Z,61.07
2022-10-17T12:44:17.033Z,61.26
2022-10-17T12:45:17.036Z,61.33
2022-10-17T12:46:17.002Z,60.93
2022-10-17T12:47:16.962Z,60.93
2022-10-17T12:48:16.952Z,61.43
2022-10-17T12:49:16.942Z,61.33
2022-10-17T12:50:16.933Z,61.04
2022-10-17T12:51:34.730Z,61.04
2022-10-17T12:52:17.924Z,60.83
2022-10-17T12:53:19.173Z,60.83
2022-10-17T12:54:16.895Z,60.83
2022-10-17T12:55:17.080Z,60.74
2022-10-17T12:56:16.886Z,61.04
2022-10-17T12:57:16.897Z,60.93
2022-10-17T12:58:16.876Z,60.93
2022-10-17T12:59:16.856Z,60.74
2022-10-17T13:00:16.835Z,60.74
2022-10-17T13:01:24.241Z,61.04
2022-10-17T13:02:17.834Z,60.63